Villa Angelica, Puerto Rico
Current Conditions -  °F | °C
As of 12:50 PM on Friday 19 Dec 2014 (Local Time) from TJBQ Reporting Station
Scattered Clouds Scattered Clouds  
Wind Chill: 82°   Ceiling: Unl
Heat Index: 85°   Visibility: 10mi
Dew Point: 68°   Wind: 15mph
Humidity: 62%   Direction: 100°E
Pressure: 29.99"   Gusts: 22mph
Location:  18.2038°N, 67.1453°W
Report Text: TJBQ 191650Z 10013G19KT 10SM SCT020 28/20 A2999 RMK RWY08 ATIS O
Loading
Personal Weather Stations






























Interactive Weather Map New forecast layout! Learn more

10-Day Weather Forecast

Advertisements
Track Severe Weather on mobile